Time;durP1;ratioP1;P1;durP2;ratioP2;P2;SDS_P1;SDS_P2;PMS_P1;PMS_P2;Temp;Humidity;BMP_temperature;BMP_pressure;BME280_temperature;BME280_humidity;BME280_pressure;Samples;Min_cycle;Max_cycle;Signal;HPM_P1;HPM_P2
2022/11/19 00:00:35;;;;;;;23.75;12.35;;;5.30;99.90;;;;;;4987651;28;20046;-87
2022/11/19 00:03:00;;;;;;;31.10;13.07;;;5.30;99.90;;;;;;5006022;28;20027;-88
2022/11/19 00:09:13;;;;;;;20.35;10.00;;;5.40;99.90;;;;;;4975113;28;20080;-87
2022/11/19 00:14:57;;;;;;;22.27;10.27;;;5.40;99.90;;;;;;4988714;28;20062;-86
2022/11/19 00:17:23;;;;;;;26.80;10.95;;;5.40;99.90;;;;;;4976751;28;20504;-85
2022/11/19 00:19:49;;;;;;;24.83;10.68;;;5.40;99.90;;;;;;4989336;28;20118;-86
2022/11/19 00:22:14;;;;;;;28.33;11.02;;;5.40;99.90;;;;;;5012865;28;20034;-88
2022/11/19 00:24:40;;;;;;;26.20;10.23;;;5.40;99.90;;;;;;4988368;28;20037;-87
2022/11/19 00:27:06;;;;;;;18.88;9.90;;;5.40;99.90;;;;;;4990494;28;20030;-88
2022/11/19 00:29:31;;;;;;;24.48;10.27;;;5.40;99.90;;;;;;4973055;28;20113;-87
2022/11/19 00:31:57;;;;;;;24.27;9.80;;;5.40;99.90;;;;;;4986090;28;20035;-87
2022/11/19 00:34:23;;;;;;;23.05;11.75;;;5.40;99.90;;;;;;4991165;28;20038;-87
2022/11/19 00:40:35;;;;;;;42.47;15.15;;;5.40;99.90;;;;;;4986447;28;20026;-87
2022/11/19 00:45:45;;;;;;;37.38;16.77;;;5.40;99.90;;;;;;5005499;28;20124;-87
2022/11/19 00:48:11;;;;;;;91.43;20.95;;;5.40;99.90;;;;;;4989432;28;20042;-87
2022/11/19 00:50:36;;;;;;;50.30;17.58;;;5.40;99.90;;;;;;4988044;28;20022;-88
2022/11/19 00:53:02;;;;;;;45.25;17.02;;;5.40;99.90;;;;;;4988512;28;20035;-87
2022/11/19 00:55:28;;;;;;;38.35;16.75;;;5.40;99.90;;;;;;4988578;28;20101;-87
2022/11/19 00:57:53;;;;;;;44.20;16.13;;;5.40;99.90;;;;;;4988296;28;20022;-87
2022/11/19 01:00:38;;;;;;;33.90;14.50;;;5.40;99.90;;;;;;4988677;28;20037;-87
2022/11/19 01:03:04;;;;;;;30.48;14.27;;;5.40;99.90;;;;;;4996373;28;20034;-86
2022/11/19 01:05:30;;;;;;;28.80;13.38;;;5.40;99.90;;;;;;4988106;28;20034;-87
2022/11/19 01:08:30;;;;;;;46.47;19.92;;;5.40;99.90;;;;;;4986863;28;20029;-87
2022/11/19 01:11:12;;;;;;;34.10;15.63;;;5.30;99.90;;;;;;4982746;28;20118;-87
2022/11/19 01:13:38;;;;;;;27.33;12.98;;;5.30;99.90;;;;;;4992325;28;20392;-87
2022/11/19 01:16:26;;;;;;;27.35;11.57;;;5.20;99.90;;;;;;4985177;28;20011;-87
2022/11/19 01:18:52;;;;;;;22.52;10.75;;;5.20;99.90;;;;;;4987616;28;20481;-87
2022/11/19 01:21:29;;;;;;;22.45;10.02;;;5.20;99.90;;;;;;4971623;28;20117;-87
2022/11/19 01:23:59;;;;;;;17.50;9.13;;;5.20;99.90;;;;;;4988417;28;20030;-88
2022/11/19 01:26:25;;;;;;;21.25;9.50;;;5.20;99.90;;;;;;4989038;28;20035;-86
2022/11/19 01:29:01;;;;;;;19.50;9.95;;;5.20;99.90;;;;;;4987811;28;20065;-86
2022/11/19 01:31:33;;;;;;;22.05;11.07;;;5.10;99.90;;;;;;4971020;28;20058;-86
2022/11/19 01:33:59;;;;;;;22.42;10.52;;;5.10;99.90;;;;;;4977023;28;20026;-86
2022/11/19 01:36:40;;;;;;;23.60;8.65;;;5.10;99.90;;;;;;4988152;28;20089;-86
2022/11/19 01:39:05;;;;;;;20.27;8.60;;;5.20;99.90;;;;;;4979494;28;20018;-86
2022/11/19 01:41:32;;;;;;;26.55;9.80;;;5.10;99.90;;;;;;4971907;28;20026;-86
2022/11/19 01:43:58;;;;;;;21.58;10.38;;;5.10;99.90;;;;;;4975430;28;20390;-86
2022/11/19 01:46:28;;;;;;;26.10;10.15;;;5.10;99.90;;;;;;4988220;28;20035;-86
2022/11/19 01:49:02;;;;;;;25.40;10.77;;;5.10;99.90;;;;;;4985947;28;20593;-86
2022/11/19 01:51:48;;;;;;;22.10;10.07;;;5.10;99.90;;;;;;5003977;28;20491;-86
2022/11/19 01:54:38;;;;;;;18.40;8.45;;;5.20;99.90;;;;;;4983412;28;20031;-86
2022/11/19 01:57:08;;;;;;;24.63;8.82;;;5.20;99.90;;;;;;4995879;28;20023;-86
2022/11/19 01:59:36;;;;;;;19.40;8.63;;;5.10;99.90;;;;;;4992506;28;20026;-86
2022/11/19 02:02:02;;;;;;;27.23;9.85;;;5.10;99.90;;;;;;4998545;28;20031;-86
2022/11/19 02:04:28;;;;;;;20.60;8.32;;;5.10;99.90;;;;;;5001013;28;20101;-86
2022/11/19 02:06:55;;;;;;;22.48;9.13;;;5.10;99.90;;;;;;4991205;28;20035;-86
2022/11/19 02:09:22;;;;;;;19.10;8.50;;;5.10;99.90;;;;;;4968215;28;20131;-86
2022/11/19 02:15:56;;;;;;;22.45;8.50;;;5.10;99.90;;;;;;4985867;28;20093;-86
2022/11/19 02:18:36;;;;;;;16.05;7.50;;;5.20;99.90;;;;;;5003887;28;20030;-86
2022/11/19 02:21:13;;;;;;;15.48;7.63;;;5.10;99.90;;;;;;4971110;28;20426;-86
2022/11/19 02:23:57;;;;;;;25.20;8.73;;;5.10;99.90;;;;;;4999138;28;20035;-86
2022/11/19 02:27:05;;;;;;;16.85;7.93;;;5.10;99.90;;;;;;4986326;28;20114;-86
2022/11/19 02:29:31;;;;;;;17.55;8.52;;;5.20;99.90;;;;;;5000051;28;20042;-86
2022/11/19 02:32:04;;;;;;;19.23;9.02;;;5.20;99.90;;;;;;5002132;28;20026;-86
2022/11/19 02:34:40;;;;;;;26.35;10.07;;;5.20;99.90;;;;;;4971362;28;20038;-87
2022/11/19 02:37:25;;;;;;;20.05;9.68;;;5.20;99.90;;;;;;4971466;28;20117;-86
2022/11/19 02:40:05;;;;;;;19.25;8.75;;;5.20;99.90;;;;;;4968717;28;20033;-87
2022/11/19 02:42:58;;;;;;;27.60;11.32;;;5.20;99.90;;;;;;5008567;28;20041;-87
2022/11/19 02:45:30;;;;;;;28.50;10.32;;;5.20;99.90;;;;;;4972174;28;20035;-86
2022/11/19 02:48:02;;;;;;;23.08;10.68;;;5.20;99.90;;;;;;4999182;28;20023;-86
2022/11/19 02:50:30;;;;;;;;;;;5.30;99.90;;;;;;4984278;28;20367;-86
2022/11/19 02:52:57;;;;;;;30.67;11.98;;;5.30;99.90;;;;;;5003129;28;19914;-86
2022/11/19 02:55:23;;;;;;;24.38;11.15;;;5.30;99.90;;;;;;5002469;28;20427;-86
2022/11/19 02:57:57;;;;;;;63.58;23.27;;;5.30;99.90;;;;;;4986009;28;20026;-86
2022/11/19 03:06:04;;;;;;;109.85;36.75;;;5.30;99.90;;;;;;5001502;28;20113;-86
2022/11/19 03:08:30;;;;;;;40.40;14.48;;;5.30;99.90;;;;;;4991344;28;20038;-86
2022/11/19 03:34:15;;;;;;;24.20;11.50;;;5.30;99.90;;;;;;4987994;28;20112;-86
2022/11/19 03:36:43;;;;;;;24.08;10.70;;;5.30;99.90;;;;;;4989656;28;20038;-86
2022/11/19 03:39:14;;;;;;;179.30;19.50;;;5.30;99.90;;;;;;4990191;28;20058;-86
2022/11/19 03:42:04;;;;;;;509.55;31.00;;;5.30;99.90;;;;;;4990122;28;20034;-86
2022/11/19 03:44:52;;;;;;;36.63;8.45;;;5.00;99.90;;;;;;4990120;28;20039;-87
2022/11/19 03:47:23;;;;;;;21.35;10.23;;;4.70;99.90;;;;;;4986823;28;20038;-86
2022/11/19 03:49:54;;;;;;;17.55;8.35;;;4.60;99.90;;;;;;4994818;28;20077;-86
2022/11/19 03:52:21;;;;;;;18.85;8.20;;;4.50;99.90;;;;;;5003157;28;20119;-86
2022/11/19 03:54:47;;;;;;;20.70;8.63;;;4.40;99.90;;;;;;4993738;28;20034;-86
2022/11/19 03:57:17;;;;;;;18.90;8.90;;;4.40;99.90;;;;;;4970450;28;20027;-87
2022/11/19 03:59:42;;;;;;;17.48;9.40;;;4.40;99.90;;;;;;4994625;28;20034;-87
2022/11/19 04:02:10;;;;;;;17.90;9.40;;;4.30;99.90;;;;;;5001424;28;20387;-87
2022/11/19 04:04:48;;;;;;;20.60;8.65;;;4.20;99.90;;;;;;4986453;28;20041;-86
2022/11/19 04:07:23;;;;;;;17.77;7.90;;;4.10;99.90;;;;;;4973294;28;20529;-86
2022/11/19 04:09:49;;;;;;;17.52;8.32;;;4.00;99.90;;;;;;4989103;28;20070;-85
2022/11/19 04:12:21;;;;;;;20.08;9.15;;;3.80;99.90;;;;;;5005934;28;20050;-85
2022/11/19 04:14:47;;;;;;;20.88;9.00;;;3.60;99.90;;;;;;5003837;28;20031;-85
2022/11/19 04:17:14;;;;;;;24.00;9.48;;;3.40;99.90;;;;;;4974694;28;20027;-86
2022/11/19 04:19:40;;;;;;;19.73;8.88;;;3.30;99.90;;;;;;4987435;28;20089;-86
2022/11/19 04:22:05;;;;;;;21.38;9.23;;;3.20;99.90;;;;;;4973353;28;20025;-87
2022/11/19 04:24:31;;;;;;;22.63;8.95;;;3.10;99.90;;;;;;4989144;28;20113;-87
2022/11/19 04:26:57;;;;;;;23.80;9.60;;;3.00;99.90;;;;;;4986908;28;20027;-86
2022/11/19 04:29:54;;;;;;;26.45;10.18;;;3.00;99.90;;;;;;4973079;28;20034;-86
2022/11/19 04:36:07;;;;;;;26.52;10.00;;;2.80;99.90;;;;;;4973317;28;20037;-87
2022/11/19 04:38:33;;;;;;;25.20;10.55;;;2.90;99.90;;;;;;4978294;28;20027;-87
2022/11/19 04:40:59;;;;;;;25.73;11.77;;;2.90;99.90;;;;;;4989387;28;20026;-87
2022/11/19 04:43:25;;;;;;;21.08;9.52;;;2.90;99.90;;;;;;4990670;28;20027;-86
2022/11/19 04:45:50;;;;;;;25.35;9.63;;;2.80;99.90;;;;;;4987689;28;20469;-86
2022/11/19 04:48:16;;;;;;;25.60;10.20;;;2.70;99.90;;;;;;4988745;28;20038;-86
2022/11/19 04:50:42;;;;;;;27.00;9.85;;;2.80;99.90;;;;;;4986295;28;20031;-86
2022/11/19 04:53:07;;;;;;;22.17;9.73;;;2.80;99.90;;;;;;4971968;28;20034;-87
2022/11/19 04:55:33;;;;;;;21.38;9.40;;;2.80;99.90;;;;;;4970928;28;20022;-87
2022/11/19 04:57:59;;;;;;;19.60;8.57;;;2.90;99.90;;;;;;4971798;28;20553;-87
2022/11/19 05:00:24;;;;;;;21.33;9.07;;;2.80;99.90;;;;;;4972550;28;20027;-86
2022/11/19 05:02:50;;;;;;;16.95;7.88;;;2.80;99.90;;;;;;4987032;28;20504;-87
2022/11/19 05:05:16;;;;;;;20.10;8.05;;;2.90;99.90;;;;;;4987773;28;20375;-87
2022/11/19 05:07:41;;;;;;;19.80;7.90;;;2.80;99.90;;;;;;5002280;28;20034;-86
2022/11/19 05:10:07;;;;;;;24.95;11.25;;;2.70;99.90;;;;;;4971637;28;20536;-87
2022/11/19 05:12:33;;;;;;;31.75;13.32;;;2.80;99.90;;;;;;4986614;28;20081;-87
2022/11/19 05:15:17;;;;;;;25.25;11.27;;;2.80;99.90;;;;;;4985217;28;20121;-86
2022/11/19 05:18:17;;;;;;;23.10;9.73;;;2.80;99.90;;;;;;4974385;28;20030;-87
2022/11/19 05:20:42;;;;;;;16.08;7.05;;;2.80;99.90;;;;;;4984103;28;20034;-87
2022/11/19 05:26:56;;;;;;;16.23;7.53;;;2.70;99.90;;;;;;4988677;28;20037;-87
2022/11/19 05:29:22;;;;;;;16.88;7.40;;;2.60;99.90;;;;;;4969920;28;20034;-87
2022/11/19 05:31:47;;;;;;;16.48;7.35;;;2.60;99.90;;;;;;4969884;28;20488;-87
2022/11/19 05:34:13;;;;;;;13.02;6.13;;;2.60;99.90;;;;;;4971193;28;20474;-88
2022/11/19 05:36:38;;;;;;;13.90;6.15;;;2.60;99.90;;;;;;5002466;28;20061;-87
2022/11/19 05:39:04;;;;;;;12.85;6.10;;;2.60;99.90;;;;;;4971102;28;20458;-87
2022/11/19 05:41:30;;;;;;;17.38;6.40;;;2.60;99.90;;;;;;4971131;28;20513;-87
2022/11/19 05:43:55;;;;;;;15.18;6.07;;;2.50;99.90;;;;;;4987135;28;20026;-87
2022/11/19 05:46:21;;;;;;;12.88;5.97;;;2.50;99.90;;;;;;4986915;28;20045;-86
2022/11/19 05:48:47;;;;;;;15.43;6.72;;;2.40;99.90;;;;;;4961561;28;20114;-86
2022/11/19 05:51:16;;;;;;;12.88;6.55;;;2.40;99.90;;;;;;4991832;28;20525;-86
2022/11/19 05:53:42;;;;;;;15.10;6.82;;;2.40;99.90;;;;;;4999809;28;20042;-87
2022/11/19 05:56:08;;;;;;;22.33;6.53;;;2.40;99.90;;;;;;4987308;28;20037;-87
2022/11/19 05:58:34;;;;;;;17.85;7.65;;;2.40;99.90;;;;;;4971258;28;20045;-87
2022/11/19 06:01:00;;;;;;;18.10;7.45;;;2.30;99.90;;;;;;4970153;28;20409;-87
2022/11/19 06:03:26;;;;;;;16.08;7.05;;;2.30;99.90;;;;;;4970601;28;20038;-87
2022/11/19 06:05:51;;;;;;;24.60;8.77;;;2.20;99.90;;;;;;4968952;28;20034;-87
2022/11/19 06:08:17;;;;;;;19.58;8.02;;;2.20;99.90;;;;;;4969638;28;20031;-87
2022/11/19 06:10:43;;;;;;;20.55;8.80;;;2.30;99.90;;;;;;4984666;28;20409;-87
2022/11/19 06:13:09;;;;;;;23.90;8.77;;;2.30;99.90;;;;;;5002610;28;20113;-87
2022/11/19 06:15:35;;;;;;;31.00;10.23;;;2.20;99.90;;;;;;4970048;28;20030;-87
2022/11/19 06:18:00;;;;;;;24.58;9.10;;;2.10;99.90;;;;;;5002948;28;20027;-87
2022/11/19 06:20:26;;;;;;;23.27;9.32;;;2.10;99.90;;;;;;4986844;28;20129;-87
2022/11/19 06:22:52;;;;;;;26.58;9.77;;;2.10;99.90;;;;;;4967954;28;20054;-87
2022/11/19 06:25:18;;;;;;;33.33;9.75;;;2.00;99.90;;;;;;4989646;28;20085;-87
2022/11/19 06:27:43;;;;;;;24.30;9.95;;;2.10;99.90;;;;;;5000903;28;20382;-86
2022/11/19 06:30:10;;;;;;;21.80;9.20;;;2.10;99.90;;;;;;4982850;28;20030;-87
2022/11/19 06:32:35;;;;;;;24.63;10.07;;;2.10;99.90;;;;;;4988726;28;20034;-87
2022/11/19 06:35:02;;;;;;;28.23;11.13;;;2.10;99.90;;;;;;4982713;28;20070;-86
2022/11/19 06:37:27;;;;;;;31.83;11.25;;;2.10;99.90;;;;;;4989219;28;20034;-86
2022/11/19 06:39:54;;;;;;;28.83;10.15;;;2.20;99.90;;;;;;4982925;28;20029;-87
2022/11/19 06:42:36;;;;;;;27.42;10.27;;;2.20;99.90;;;;;;4971678;28;20062;-86
2022/11/19 06:45:10;;;;;;;29.50;10.95;;;2.20;99.90;;;;;;4963836;28;20027;-88
2022/11/19 06:47:37;;;;;;;33.60;11.23;;;2.20;99.90;;;;;;4971129;28;20659;-87
2022/11/19 06:50:04;;;;;;;36.67;12.55;;;2.10;99.90;;;;;;4972975;28;20435;-88
2022/11/19 06:52:30;;;;;;;26.83;11.25;;;2.10;99.90;;;;;;4981535;28;20379;-88
2022/11/19 06:54:56;;;;;;;34.05;11.95;;;2.10;99.90;;;;;;4988656;28;20027;-88
2022/11/19 06:57:21;;;;;;;34.25;10.93;;;2.10;99.90;;;;;;4956521;28;20065;-87
2022/11/19 07:03:34;;;;;;;31.48;11.65;;;2.10;99.90;;;;;;4974195;28;20494;-87
2022/11/19 07:06:03;;;;;;;62.92;23.42;;;2.10;99.90;;;;;;4972865;28;20945;-87
2022/11/19 07:08:32;;;;;;;119.00;41.55;;;2.00;99.90;;;;;;4972601;28;20135;-88
2022/11/19 07:10:58;;;;;;;39.30;14.65;;;2.00;99.90;;;;;;4981408;28;20082;-88
2022/11/19 07:13:23;;;;;;;30.77;11.20;;;2.00;99.90;;;;;;4972967;28;20058;-88
2022/11/19 07:15:49;;;;;;;27.23;10.98;;;1.90;99.90;;;;;;4973208;28;20758;-88
2022/11/19 07:18:15;;;;;;;25.60;11.10;;;1.90;99.90;;;;;;4973337;28;20015;-88
2022/11/19 07:20:43;;;;;;;23.75;9.73;;;2.00;99.90;;;;;;4972876;28;20026;-88
2022/11/19 07:23:09;;;;;;;29.77;10.38;;;1.90;99.90;;;;;;4954636;28;20043;-88
2022/11/19 07:25:36;;;;;;;25.75;9.98;;;2.00;99.90;;;;;;4980538;28;20126;-88
2022/11/19 07:28:01;;;;;;;29.40;12.35;;;2.00;99.90;;;;;;4988503;28;20030;-88
2022/11/19 07:30:27;;;;;;;28.23;11.13;;;1.90;99.90;;;;;;4972637;28;20041;-88
2022/11/19 07:32:53;;;;;;;31.40;11.98;;;1.90;99.90;;;;;;4972491;28;20426;-88
2022/11/19 07:35:19;;;;;;;29.95;10.60;;;1.80;99.90;;;;;;4971080;28;20023;-88
2022/11/19 07:37:44;;;;;;;25.60;9.95;;;1.90;99.90;;;;;;4982482;28;20052;-88
2022/11/19 07:40:13;;;;;;;29.58;10.77;;;1.90;99.90;;;;;;4958490;28;20390;-88
2022/11/19 07:42:51;;;;;;;25.10;9.63;;;1.90;99.90;;;;;;4972830;28;20023;-88
2022/11/19 07:45:20;;;;;;;27.90;10.57;;;1.90;99.90;;;;;;4956370;28;20035;-88
2022/11/19 07:47:46;;;;;;;26.40;10.82;;;1.90;99.90;;;;;;4972285;28;20139;-88
2022/11/19 07:50:12;;;;;;;29.23;10.45;;;2.00;99.90;;;;;;4973142;28;20414;-88
2022/11/19 07:52:38;;;;;;;33.17;12.65;;;2.10;99.90;;;;;;4973343;28;20125;-88
2022/11/19 07:55:04;;;;;;;33.15;12.77;;;2.20;99.90;;;;;;4975970;28;20118;-87
2022/11/19 07:57:30;;;;;;;33.17;12.60;;;2.10;99.90;;;;;;4988614;28;20034;-87
2022/11/19 07:59:56;;;;;;;31.08;11.90;;;2.20;99.90;;;;;;4991935;28;20401;-88
2022/11/19 08:02:21;;;;;;;31.00;12.70;;;2.30;99.90;;;;;;4991929;28;20030;-88
2022/11/19 08:04:47;;;;;;;35.60;14.02;;;2.30;99.90;;;;;;4991974;28;20685;-88
2022/11/19 08:07:13;;;;;;;37.15;13.00;;;2.30;99.90;;;;;;4969547;28;20035;-88
2022/11/19 08:09:39;;;;;;;33.35;13.95;;;2.30;99.90;;;;;;4965468;28;20053;-88
2022/11/19 08:12:04;;;;;;;37.10;14.38;;;2.30;99.90;;;;;;4975267;28;20073;-87
2022/11/19 08:14:30;;;;;;;28.17;12.10;;;2.20;99.90;;;;;;4981447;28;20039;-88
2022/11/19 08:19:40;;;;;;;36.70;12.77;;;2.20;99.90;;;;;;4987904;28;20052;-87
2022/11/19 08:22:06;;;;;;;35.53;13.18;;;2.20;99.90;;;;;;4975752;28;20151;-87
2022/11/19 08:24:31;;;;;;;29.27;11.38;;;2.20;99.90;;;;;;4976314;28;20085;-88
2022/11/19 08:26:57;;;;;;;48.08;14.63;;;2.20;99.90;;;;;;4973695;28;20795;-88
2022/11/19 08:29:23;;;;;;;45.88;14.88;;;2.20;99.90;;;;;;4979904;28;20114;-88
2022/11/19 08:31:50;;;;;;;39.05;14.38;;;2.30;99.90;;;;;;4968923;28;20035;-87
2022/11/19 08:34:16;;;;;;;33.63;12.93;;;2.40;99.90;;;;;;4975252;28;20491;-88
2022/11/19 08:36:42;;;;;;;33.45;12.75;;;2.50;99.90;;;;;;4969328;28;20165;-87
2022/11/19 08:39:08;;;;;;;40.30;13.52;;;2.50;99.90;;;;;;4975247;28;20030;-87
2022/11/19 08:48:09;;;;;;;34.90;13.48;;;2.50;99.90;;;;;;4973154;28;20114;-88
2022/11/19 08:50:34;;;;;;;32.30;12.38;;;2.40;99.90;;;;;;4971846;28;20031;-88
2022/11/19 08:53:04;;;;;;;35.55;13.50;;;2.40;99.90;;;;;;4981301;28;20041;-88
2022/11/19 08:55:30;;;;;;;42.05;14.13;;;2.40;99.90;;;;;;4967580;28;20082;-88
2022/11/19 08:58:05;;;;;;;39.00;16.38;;;2.50;99.90;;;;;;4975161;28;20022;-88
2022/11/19 09:00:33;;;;;;;61.70;21.73;;;2.50;99.90;;;;;;4976019;28;20027;-88
2022/11/19 09:02:58;;;;;;;49.97;17.83;;;2.40;99.90;;;;;;4975313;28;20421;-88
2022/11/19 09:05:24;;;;;;;46.80;17.35;;;2.40;99.90;;;;;;4988434;28;20133;-88
2022/11/19 09:11:37;;;;;;;47.70;20.58;;;2.60;99.90;;;;;;4974731;28;20045;-88
2022/11/19 09:14:04;;;;;;;46.28;22.30;;;2.60;99.90;;;;;;4980015;28;20065;-88
2022/11/19 09:16:30;;;;;;;35.22;17.50;;;2.50;99.90;;;;;;4974791;28;20071;-88
2022/11/19 09:18:55;;;;;;;28.50;12.32;;;2.60;99.90;;;;;;4983787;28;20027;-88
2022/11/19 09:21:21;;;;;;;30.75;12.38;;;2.60;99.90;;;;;;4979832;28;20030;-88
2022/11/19 09:23:47;;;;;;;30.25;13.02;;;2.60;99.90;;;;;;4983335;28;20033;-89
2022/11/19 09:26:16;;;;;;;30.52;12.98;;;2.50;99.90;;;;;;4982438;28;20035;-88
2022/11/19 09:36:17;;;;;;;27.23;10.95;;;2.60;99.90;;;;;;4971636;28;20093;-88
2022/11/19 09:38:43;;;;;;;26.58;11.75;;;2.70;99.90;;;;;;4973200;28;20023;-88
2022/11/19 09:41:39;;;;;;;27.23;11.48;;;2.50;99.90;;;;;;4986566;28;20467;-88
2022/11/19 09:44:32;;;;;;;26.30;11.32;;;2.40;99.90;;;;;;5002979;28;20031;-88
2022/11/19 09:47:26;;;;;;;30.92;13.25;;;2.30;99.90;;;;;;4995760;28;20066;-89
2022/11/19 09:50:11;;;;;;;32.33;12.57;;;2.30;99.90;;;;;;4983595;28;20050;-88
2022/11/19 09:52:43;;;;;;;27.30;11.90;;;2.30;99.90;;;;;;4978170;28;20190;-87
2022/11/19 09:55:31;;;;;;;29.52;12.25;;;2.20;99.90;;;;;;4985372;28;20059;-88
2022/11/19 09:58:22;;;;;;;27.13;11.88;;;2.10;99.90;;;;;;4972310;28;20058;-87
2022/11/19 10:00:47;;;;;;;43.33;17.40;;;2.10;99.90;;;;;;4985323;28;20042;-88
2022/11/19 10:03:17;;;;;;;36.88;14.07;;;2.20;99.90;;;;;;4986006;28;20466;-88
2022/11/19 10:06:22;;;;;;;40.75;14.52;;;2.20;99.90;;;;;;4999694;28;20047;-89
2022/11/19 10:09:33;;;;;;;29.73;13.50;;;2.20;99.90;;;;;;4983131;28;20045;-88
2022/11/19 10:12:06;;;;;;;35.25;13.95;;;2.10;99.90;;;;;;4965703;28;20039;-88
2022/11/19 10:14:37;;;;;;;26.25;11.90;;;2.10;99.90;;;;;;4997729;28;20046;-88
2022/11/19 10:17:20;;;;;;;43.47;14.00;;;2.10;99.90;;;;;;4989806;28;20023;-88
2022/11/19 10:20:23;;;;;;;27.25;12.60;;;2.00;99.90;;;;;;4998459;28;20050;-88
2022/11/19 10:22:55;;;;;;;32.67;13.52;;;2.10;99.90;;;;;;4999354;28;20629;-89
2022/11/19 10:25:35;;;;;;;35.38;12.57;;;2.20;99.90;;;;;;4981360;28;20073;-88
2022/11/19 10:28:37;;;;;;;33.40;12.40;;;2.30;99.90;;;;;;4993132;28;20050;-88
2022/11/19 10:31:12;;;;;;;26.70;12.00;;;2.40;99.90;;;;;;4958410;28;20127;-88
2022/11/19 10:34:15;;;;;;;26.65;11.50;;;2.50;99.90;;;;;;4983690;28;20161;-89
2022/11/19 10:36:54;;;;;;;23.42;12.02;;;2.40;99.90;;;;;;5000389;28;20046;-88
2022/11/19 10:39:42;;;;;;;24.25;11.57;;;2.40;99.90;;;;;;4985441;28;20037;-88
2022/11/19 10:42:20;;;;;;;27.95;10.77;;;2.30;99.90;;;;;;4986388;28;20022;-88
2022/11/19 10:44:56;;;;;;;24.83;10.88;;;2.30;99.90;;;;;;4974724;28;20057;-88
2022/11/19 10:47:43;;;;;;;18.63;8.95;;;2.40;99.90;;;;;;4983705;28;20062;-88
2022/11/19 10:50:16;;;;;;;17.55;9.07;;;2.50;99.90;;;;;;4959982;28;20394;-88
2022/11/19 10:52:45;;;;;;;29.58;12.65;;;2.60;99.90;;;;;;4972862;28;20046;-89
2022/11/19 10:55:28;;;;;;;19.88;9.10;;;2.70;99.90;;;;;;4965739;28;20027;-88
2022/11/19 10:58:06;;;;;;;19.90;9.68;;;2.70;99.90;;;;;;4958177;28;20027;-88
2022/11/19 11:01:13;;;;;;;20.20;10.07;;;2.80;99.90;;;;;;4954621;28;20033;-89
2022/11/19 11:03:47;;;;;;;30.40;15.63;;;2.90;99.90;;;;;;4971543;28;20360;-88
2022/11/19 11:06:13;;;;;;;24.67;12.70;;;3.00;99.90;;;;;;4973930;28;20034;-88
2022/11/19 11:08:50;;;;;;;24.48;13.07;;;3.10;99.90;;;;;;4973221;28;20102;-88
2022/11/19 11:14:50;;;;;;;11.45;7.05;;;3.20;99.90;;;;;;4986089;28;20045;-88
2022/11/19 11:17:19;;;;;;;18.58;8.77;;;3.10;99.90;;;;;;4989106;28;20114;-88
2022/11/19 11:19:57;;;;;;;18.92;10.75;;;3.10;99.90;;;;;;4971731;28;20475;-88
2022/11/19 11:22:23;;;;;;;18.35;10.38;;;3.10;99.90;;;;;;4972513;28;20101;-89
2022/11/19 11:24:49;;;;;;;14.57;9.10;;;3.10;99.90;;;;;;4989788;28;20386;-87
2022/11/19 11:27:29;;;;;;;12.25;6.95;;;3.20;99.90;;;;;;4974847;28;20034;-88
2022/11/19 11:34:26;;;;;;;12.43;6.68;;;3.40;99.90;;;;;;4977684;28;20049;-88
2022/11/19 11:36:53;;;;;;;10.05;5.88;;;3.30;99.90;;;;;;4992193;28;20478;-87
2022/11/19 11:39:35;;;;;;;7.35;4.47;;;3.30;99.90;;;;;;4980291;28;20046;-88
2022/11/19 11:42:01;;;;;;;7.32;4.13;;;3.30;99.90;;;;;;4992998;28;20725;-88
2022/11/19 11:44:46;;;;;;;12.85;6.47;;;3.30;99.90;;;;;;4967454;28;20034;-89
2022/11/19 11:47:16;;;;;;;10.48;5.90;;;3.30;99.90;;;;;;4994242;28;20035;-88
2022/11/19 11:49:45;;;;;;;6.95;4.90;;;3.20;99.90;;;;;;4966472;28;20393;-88
2022/11/19 11:52:11;;;;;;;7.82;5.18;;;3.30;99.90;;;;;;4982755;28;20606;-87
2022/11/19 11:54:52;;;;;;;10.65;5.68;;;3.20;99.90;;;;;;4974735;28;20045;-88
2022/11/19 11:57:21;;;;;;;7.68;4.57;;;3.20;99.90;;;;;;4965865;28;20653;-88
2022/11/19 11:59:46;;;;;;;11.98;6.30;;;3.10;99.90;;;;;;4975960;28;20696;-88
2022/11/19 12:02:31;;;;;;;10.60;6.32;;;3.10;99.90;;;;;;4978728;28;20031;-88
2022/11/19 12:05:06;;;;;;;9.90;6.05;;;3.10;99.90;;;;;;5009936;28;20038;-88
2022/11/19 12:08:16;;;;;;;13.18;7.07;;;3.00;99.90;;;;;;4961004;28;20023;-88
2022/11/19 12:11:00;;;;;;;12.13;5.32;;;3.10;99.90;;;;;;4956107;28;20050;-88
2022/11/19 12:13:52;;;;;;;12.82;6.22;;;3.00;99.90;;;;;;4955618;28;20081;-88
2022/11/19 12:16:37;;;;;;;5.88;4.28;;;2.90;99.90;;;;;;4973966;28;20043;-88
2022/11/19 12:19:41;;;;;;;9.55;5.40;;;2.80;99.90;;;;;;4963875;28;20085;-87
2022/11/19 12:22:38;;;;;;;10.52;5.32;;;2.70;99.90;;;;;;4981656;28;20089;-87
2022/11/19 12:25:25;;;;;;;7.07;4.07;;;2.70;99.90;;;;;;4958482;28;20022;-88
2022/11/19 12:28:41;;;;;;;10.30;4.90;;;2.70;99.90;;;;;;4970958;28;20062;-87
2022/11/19 12:31:25;;;;;;;26.77;10.07;;;2.60;99.90;;;;;;4970816;28;20031;-89
2022/11/19 12:34:02;;;;;;;35.25;14.18;;;2.70;99.90;;;;;;4981981;28;20067;-88
2022/11/19 12:36:59;;;;;;;17.80;8.23;;;2.80;99.90;;;;;;4974328;28;20069;-89
2022/11/19 12:39:47;;;;;;;18.17;8.85;;;2.90;99.90;;;;;;4968681;28;20042;-89
2022/11/19 12:46:11;;;;;;;15.57;6.20;;;3.10;99.90;;;;;;4978267;28;20089;-89
2022/11/19 12:48:59;;;;;;;8.40;3.97;;;3.20;99.90;;;;;;4969655;28;20122;-89
2022/11/19 12:51:38;;;;;;;4.97;2.63;;;3.20;99.90;;;;;;4989286;28;20031;-89
2022/11/19 12:54:27;;;;;;;5.13;3.22;;;3.10;99.90;;;;;;4974936;28;20836;-88
2022/11/19 12:57:18;;;;;;;6.13;3.97;;;3.20;99.90;;;;;;4989104;28;20031;-90
2022/11/19 12:59:58;;;;;;;44.53;16.75;;;3.30;99.90;;;;;;4966848;28;20121;-89
2022/11/19 13:02:26;;;;;;;13.57;6.18;;;3.30;99.90;;;;;;4978103;28;20719;-89
2022/11/19 13:08:54;;;;;;;6.65;4.05;;;3.40;99.90;;;;;;4972787;28;20061;-89
2022/11/19 13:11:35;;;;;;;6.53;3.53;;;3.30;99.90;;;;;;4965926;28;20032;-89
2022/11/19 13:14:12;;;;;;;5.60;3.42;;;3.30;99.90;;;;;;4981947;28;20039;-89
2022/11/19 13:16:40;;;;;;;8.38;4.65;;;3.30;99.90;;;;;;4985113;28;20386;-89
2022/11/19 13:19:29;;;;;;;10.85;5.28;;;3.40;99.90;;;;;;4963101;28;20039;-89
2022/11/19 13:22:06;;;;;;;21.50;11.18;;;3.50;99.90;;;;;;4971710;28;20041;-89
2022/11/19 13:25:27;;;;;;;12.80;6.70;;;3.60;99.90;;;;;;4978175;28;20034;-89
2022/11/19 13:27:55;;;;;;;13.02;7.05;;;3.60;99.90;;;;;;4974483;28;20375;-89
2022/11/19 13:30:22;;;;;;;9.10;5.95;;;3.60;99.90;;;;;;4972927;28;20057;-89
2022/11/19 13:33:04;;;;;;;9.18;5.55;;;3.60;99.90;;;;;;4974346;28;20049;-89
2022/11/19 13:35:57;;;;;;;7.45;4.50;;;3.50;99.90;;;;;;4988130;28;20081;-89
2022/11/19 13:38:43;;;;;;;9.25;5.30;;;3.30;99.90;;;;;;4972335;28;20041;-88
2022/11/19 13:41:19;;;;;;;8.57;5.03;;;3.20;99.90;;;;;;4967957;28;20066;-88
2022/11/19 13:44:37;;;;;;;8.07;4.63;;;3.10;99.90;;;;;;4975009;28;20514;-89
2022/11/19 13:47:19;;;;;;;8.38;4.60;;;3.10;99.90;;;;;;4978141;28;20045;-88
2022/11/19 13:49:52;;;;;;;9.38;4.35;;;3.10;99.90;;;;;;4965901;28;20045;-89
2022/11/19 13:52:27;;;;;;;8.52;4.50;;;3.10;99.90;;;;;;4962279;28;20046;-88
2022/11/19 13:54:55;;;;;;;8.70;5.22;;;2.90;99.90;;;;;;4958163;28;20066;-88
2022/11/19 13:57:25;;;;;;;9.30;5.68;;;2.80;99.90;;;;;;4996009;28;20034;-90
2022/11/19 13:59:58;;;;;;;7.07;4.65;;;2.80;99.90;;;;;;4985881;28;20030;-89
2022/11/19 14:02:55;;;;;;;9.13;4.80;;;2.60;99.90;;;;;;4961279;28;20837;-88
2022/11/19 14:05:32;;;;;;;8.50;4.40;;;2.60;99.90;;;;;;4987071;28;20043;-89
2022/11/19 14:08:04;;;;;;;10.43;6.80;;;2.60;99.90;;;;;;4992205;28;20038;-88
2022/11/19 14:10:56;;;;;;;11.75;5.28;;;2.50;99.90;;;;;;4958728;28;20038;-88
2022/11/19 14:13:27;;;;;;;8.35;5.00;;;2.50;99.90;;;;;;4990133;28;20033;-88
2022/11/19 14:27:23;;;;;;;11.52;6.15;;;2.50;99.90;;;;;;4985249;28;20042;-89
2022/11/19 14:29:48;;;;;;;8.88;4.97;;;2.50;99.90;;;;;;4960263;28;20486;-89
2022/11/19 14:32:14;;;;;;;10.93;5.75;;;2.50;99.90;;;;;;4985145;28;20038;-88
2022/11/19 14:35:07;;;;;;;10.02;6.00;;;2.50;99.90;;;;;;4977023;28;20042;-89
2022/11/19 14:37:36;;;;;;;8.90;5.18;;;2.50;99.90;;;;;;4972891;28;20031;-89
2022/11/19 14:40:22;;;;;;;10.00;5.40;;;2.50;99.90;;;;;;4973978;28;20537;-88
2022/11/19 14:46:07;;;;;;;13.43;7.57;;;2.40;99.90;;;;;;4996924;28;20034;-88
2022/11/19 14:48:39;;;;;;;16.70;7.85;;;2.40;99.90;;;;;;4988208;28;20037;-87
2022/11/19 14:51:30;;;;;;;11.90;6.90;;;2.40;99.90;;;;;;4979951;28;20027;-88
2022/11/19 14:54:03;;;;;;;19.10;10.40;;;2.40;99.90;;;;;;5005055;28;20034;-88
2022/11/19 14:56:31;;;;;;;26.05;13.88;;;2.30;99.90;;;;;;4981121;28;20022;-88
2022/11/19 14:59:04;;;;;;;25.15;13.32;;;2.30;99.90;;;;;;4977404;28;20470;-89
2022/11/19 15:01:30;;;;;;;18.92;10.38;;;2.40;99.90;;;;;;5000531;28;20038;-88